Flight Track Log - Related Links

Times and Time Zones

All times are in EDT time to prevent confusion due to time zone crossing. See the AAY807 flight status page for this flight to view local times or setup timezone preferences in your user account.

Time Position Orientation Groundspeed Altitude Reporting Facility
EDT Latitude Longitude Course Direction KTS MPH feet Rate Location/Type
Mon 07:59:56 PM 37.3094 -93.3692 133° Southeast 229 264 4,700  Level Memphis Center
Mon 08:00:57 PM 37.2803 -93.2708 110° East 303 349 7,000 2,622 Climbing Memphis Center
Mon 08:01:55 PM 37.2453 -93.1756 115° Southeast 301 346 9,900 2,319 Climbing Kansas City Center
Mon 08:02:56 PM 37.1886 -93.0839 128° Southeast 316 364 11,600 1,659 Climbing Kansas City Center
Mon 08:03:58 PM 37.1172 -92.9825 131° Southeast 360 414 13,300 2,419 Climbing Kansas City Center
Mon 08:04:00 PM 37.2630 -93.3708 39° Northeast  Level FlightAware Approximate
Mon 08:05:00 PM 37.3069 -93.2759 133° Southeast  Level FlightAware Approximate
Mon 08:05:00 PM 37.0314 -92.8472 128° Southeast 401 461 16,600  Level Kansas City Center
Mon 08:06:01 PM 36.9561 -92.7336 130° Southeast 413 475 19,300 2,244 Climbing Kansas City Center
Mon 08:07:03 PM 36.8794 -92.6214 130° Southeast 418 481 21,200 1,742 Climbing Kansas City Center
Mon 08:08:05 PM 36.8008 -92.5056 130° Southeast 429 494 22,900 1,220 Climbing Kansas City Center
Mon 08:09:06 PM 36.7219 -92.3914 131° Southeast 431 496 23,700 1,220 Climbing Kansas City Center
Mon 08:10:08 PM 36.6406 -92.2772 132° Southeast 435 501 25,400 1,610 Climbing Memphis Center
Mon 08:11:09 PM 36.5639 -92.1606 129° Southeast 437 503 27,000 787 Climbing Memphis Center
Mon 08:12:10 PM 36.4861 -92.0469 130° Southeast 435 501 27,000 537 Level Memphis Center
Mon 08:13:12 PM 36.4008 -91.9253 131° Southeast 435 501 28,100 976 Climbing Memphis Center
Mon 08:14:13 PM 36.3206 -91.8083 130° Southeast 439 505 29,000 787 Climbing Memphis Center
Mon 08:15:14 PM 36.2392 -91.6906 131° Southeast 440 506 29,700 984 Climbing Memphis Center
Mon 08:16:15 PM 36.1564 -91.5742 131° Southeast 445 512 31,000 1,131 Climbing Memphis Center
Mon 08:17:16 PM 36.0747 -91.4589 131° Southeast 445 512 32,000 836 Climbing Memphis Center
Mon 08:18:17 PM 35.9947 -91.3444 131° Southeast 445 512 32,700 488 Climbing Memphis Center
Mon 08:19:19 PM 35.8953 -91.2047 131° Southeast 446 513 33,000 146 Climbing Memphis Center
Mon 08:20:20 PM 35.8139 -91.0886 131° Southeast 446 513 33,000  Level Memphis Center
Mon 08:21:21 PM 35.7350 -90.9764 131° Southeast 444 511 33,000  Level Memphis Center
Mon 08:22:22 PM 35.6631 -90.8794 132° Southeast 441 507 33,000  Level Memphis Center
Mon 08:23:23 PM 35.5650 -90.7428 131° Southeast 441 507 33,000  Level Memphis Center
Mon 08:24:24 PM 35.4856 -90.6297 131° Southeast 441 507 33,000  Level Memphis Center
Mon 08:25:25 PM 35.4033 -90.5167 132° Southeast 442 509 33,000  Level Memphis Center
Mon 08:26:27 PM 35.3197 -90.4022 132° Southeast 446 513 33,000  Level Memphis Center
Mon 08:27:28 PM 35.2369 -90.2853 131° Southeast 450 518 33,000  Level Memphis Center
Mon 08:28:29 PM 35.1556 -90.1736 132° Southeast 448 516 33,000  Level Memphis Center
Mon 08:29:30 PM 35.0706 -90.0611 133° Southeast 446 513 33,000  Level Memphis Center
Mon 08:30:31 PM 34.9864 -89.9447 131° Southeast 455 524 33,000  Level Memphis Center
Mon 08:31:32 PM 34.8931 -89.8125 131° Southeast 457 526 33,000  Level Memphis Center
Mon 08:32:33 PM 34.8144 -89.6961 129° Southeast 456 525 33,000  Level Memphis Center
Mon 08:33:34 PM 34.7761 -89.5406 107° East 490 564 33,000  Level Memphis Center
Mon 08:34:35 PM 34.7483 -89.3800 102° East 492 566 33,000  Level Memphis Center
Mon 08:35:36 PM 34.7258 -89.2172 100° East 492 566 33,000  Level Memphis Center
Mon 08:36:37 PM 34.7047 -89.0558 99° East 488 562 33,000  Level Memphis Center
Mon 08:37:38 PM 34.6856 -88.8958 98° East 484 557 33,000  Level Memphis Center
Mon 08:38:39 PM 34.6667 -88.7356 98° East 483 556 33,000  Level Memphis Center
Mon 08:39:41 PM 34.6419 -88.5433 99° East 483 556 33,000  Level Memphis Center
Mon 08:40:42 PM 34.6247 -88.3978 98° East 483 556 33,000  Level Memphis Center
Mon 08:41:43 PM 34.6086 -88.2400 97° East 477 549 33,000 -393 Level Memphis Center
Mon 08:42:44 PM 34.5908 -88.0839 98° East 473 544 32,200 -885 Descending Memphis Center
Mon 08:43:45 PM 34.5694 -87.9281 99° East 472 543 31,200 -590 Descending Memphis Center
Mon 08:44:46 PM 34.5128 -87.7703 114° Southeast 464 534 31,000 -98 Descending Memphis Center
Mon 08:45:47 PM 34.4692 -87.6236 110° East 463 533 31,000  Level Memphis Center
Mon 08:46:48 PM 34.4178 -87.4803 113° Southeast 464 534 31,000  Level Memphis Center
Mon 08:47:49 PM 34.3447 -87.3483 124° Southeast 465 535 31,000 148 Level Memphis Center
Mon 08:48:50 PM 34.2708 -87.2186 125° Southeast 465 535 31,300 984 Climbing Memphis Center
Mon 08:49:51 PM 34.1950 -87.0911 126° Southeast 465 535 33,000 829 Climbing Memphis Center
Mon 08:50:53 PM 34.1186 -86.9775 129° Southeast 453 521 33,000  Level Memphis Center
Mon 08:51:54 PM 33.9983 -86.8814 146° Southeast 438 504 33,000  Level Memphis Center
Mon 08:52:55 PM 33.8922 -86.8056 149° Southeast 438 504 33,000  Level Memphis Center
Mon 08:53:29 PM 33.8269 -86.7594 150° Southeast 441 507 33,000  Level Atlanta Center
Mon 08:54:29 PM 33.7242 -86.6789 147° Southeast 446 513 33,000  Level Atlanta Center
Mon 08:55:29 PM 33.6172 -86.6006 149° Southeast 441 507 33,000  Level Atlanta Center
Mon 08:56:29 PM 33.5147 -86.5203 147° Southeast 441 507 33,000  Level Atlanta Center
Mon 08:57:29 PM 33.4075 -86.4428 149° Southeast 446 513 33,000  Level Atlanta Center
Mon 08:58:29 PM 33.3028 -86.3603 147° Southeast 446 513 33,000  Level Atlanta Center
Mon 08:59:29 PM 33.1917 -86.2753 147° Southeast 456 525 33,000  Level Atlanta Center
Mon 09:00:29 PM 33.0825 -86.1933 148° Southeast 462 532 33,000  Level Atlanta Center
Mon 09:01:29 PM 32.9753 -86.1139 148° Southeast 464 534 33,000  Level Atlanta Center
Mon 09:02:29 PM 32.8639 -86.0369 150° Southeast 464 534 33,000  Level Atlanta Center
Mon 09:03:29 PM 32.7503 -85.9531 148° Southeast 469 540 33,000  Level Atlanta Center
Mon 09:04:29 PM 32.6369 -85.8667 147° Southeast 474 545 33,000  Level Atlanta Center
Mon 09:05:29 PM 32.5253 -85.7856 149° Southeast 474 545 33,000  Level Atlanta Center
Mon 09:06:29 PM 32.4117 -85.7044 149° Southeast 474 545 33,000 500 Level Atlanta Center
Mon 09:07:29 PM 32.3000 -85.6214 148° Southeast 474 545 34,000 1,000 Climbing Atlanta Center
Mon 09:08:29 PM 32.1906 -85.5383 147° Southeast 474 545 35,000 303 Climbing Atlanta Center
Mon 09:10:47 PM 31.9522 -85.3706 149° Southeast 474 545 35,000  Level Jacksonville Center
Mon 09:11:47 PM 31.8411 -85.2892 148° Southeast 469 540 35,000  Level Jacksonville Center
Mon 09:12:47 PM 31.7319 -85.2106 149° Southeast 464 534 35,000  Level Jacksonville Center
Mon 09:13:47 PM 31.6144 -85.1247 148° Southeast 469 540 35,000  Level Jacksonville Center
Mon 09:14:47 PM 31.4989 -85.0442 149° Southeast 464 534 35,000  Level Jacksonville Center
Mon 09:15:47 PM 31.3897 -84.9661 149° Southeast 464 534 35,000  Level Jacksonville Center
Mon 09:16:47 PM 31.2781 -84.8883 149° Southeast 464 534 35,000  Level Jacksonville Center
Mon 09:17:47 PM 31.1686 -84.8106 149° Southeast 464 534 35,000  Level Jacksonville Center
Mon 09:18:47 PM 31.0572 -84.7308 148° Southeast 464 534 35,000  Level Jacksonville Center
Mon 09:19:47 PM 30.9475 -84.6536 149° Southeast 464 534 35,000  Level Jacksonville Center
Mon 09:20:47 PM 30.8483 -84.5817 148° Southeast 471 542 35,000  Level Jacksonville Center
Mon 09:21:47 PM 30.7428 -84.5047 148° Southeast 465 535 35,000  Level Jacksonville Center
Mon 09:22:47 PM 30.6311 -84.4281 149° Southeast 465 535 35,000  Level Jacksonville Center
Mon 09:23:47 PM 30.5253 -84.3517 148° Southeast 459 528 35,000  Level Jacksonville Center
Mon 09:24:47 PM 30.4114 -84.2800 152° Southeast 459 528 35,000  Level Jacksonville Center
Mon 09:25:47 PM 30.3014 -84.2086 151° Southeast 459 528 35,000  Level Jacksonville Center
Mon 09:26:47 PM 30.1833 -84.1325 151° Southeast 453 521 35,000  Level Jacksonville Center
Mon 09:27:47 PM 30.0711 -84.0567 150° Southeast 453 521 35,000  Level Jacksonville Center
Mon 09:28:47 PM 29.9592 -83.9881 152° Southeast 453 521 35,000  Level Jacksonville Center
Mon 09:29:47 PM 29.8492 -83.9150 150° Southeast 458 527 35,000  Level Jacksonville Center
Mon 09:30:47 PM 29.7369 -83.8444 151° Southeast 458 527 35,000 -50 Level Jacksonville Center
Mon 09:31:47 PM 29.6267 -83.7742 151° Southeast 458 527 34,900 -700 Descending Jacksonville Center
Mon 09:32:47 PM 29.5125 -83.7017 151° Southeast 458 527 33,600 -1,950 Descending Jacksonville Center
Mon 09:33:47 PM 29.4000 -83.6292 151° Southeast 458 527 31,000 -2,600 Descending Jacksonville Center
Mon 09:34:47 PM 29.2836 -83.5519 150° Southeast 463 533 28,400 -2,350 Descending Jacksonville Center
Mon 09:35:47 PM 29.1669 -83.4775 151° Southeast 475 547 26,300 -1,500 Descending Jacksonville Center
Mon 09:36:47 PM 29.0464 -83.4008 151° Southeast 482 555 25,400 -1,450 Descending Jacksonville Center
Mon 09:37:47 PM 28.9275 -83.3267 151° Southeast 482 555 23,400 -2,600 Descending Jacksonville Center
Mon 09:38:47 PM 28.8111 -83.2503 150° Southeast 482 555 20,200 -2,769 Descending Jacksonville Center
Mon 09:41:02 PM 28.5667 -83.1000 152° Southeast 405 466 14,400 -2,337 Descending Tampa TRACON
Mon 09:41:57 PM 28.4833 -83.0500 152° Southeast 380 437 12,800 -1,339 Descending Tampa TRACON
Mon 09:43:03 PM 28.4000 -83.0000 152° Southeast 319 367 11,700 -1,104 Descending Tampa TRACON
Mon 09:44:02 PM 28.3167 -82.9500 152° Southeast 285 328 10,500 -1,526 Descending Tampa TRACON
Mon 09:44:57 PM 28.2667 -82.9167 150° Southeast 273 314 8,800 -1,930 Descending Tampa TRACON
Mon 09:45:57 PM 28.2000 -82.8667 147° Southeast 266 306 6,800 -2,000 Descending Tampa TRACON
Mon 09:46:57 PM 28.1667 -82.8000 120° Southeast 262 302 4,800 -1,667 Descending Tampa TRACON
Mon 09:48:03 PM 28.1167 -82.7333 130° Southeast 248 285 3,300 -1,095 Descending Tampa TRACON
Mon 09:49:03 PM 28.0667 -82.7167 164° South 175 201 2,500 -750 Descending Tampa TRACON
Mon 09:50:03 PM 28.0167 -82.7000 164° South 156 180 1,800 -684 Descending Tampa TRACON
Mon 09:50:57 PM 27.9833 -82.7000 180° South 133 153 1,200 -684 Descending Tampa TRACON
Mon 09:51:57 PM 27.9500 -82.7000 180° South 128 147 500 -700 Descending Tampa TRACON

Login

Don't have an account? Register now (free) for customized features, flight alerts, and more!